sensor_id;sensor_type;location;lat;lon;timestamp;P1;durP1;ratioP1;P2;durP2;ratioP2
74894;SDS011;63447;49.446;8.666;2024-02-14T00:00:42;6.15;;;2.10;;
74894;SDS011;63447;49.446;8.666;2024-02-14T00:03:08;6.53;;;1.92;;
74894;SDS011;63447;49.446;8.666;2024-02-14T00:05:34;5.43;;;2.40;;
74894;SDS011;63447;49.446;8.666;2024-02-14T00:08:01;5.05;;;2.08;;
74894;SDS011;63447;49.446;8.666;2024-02-14T00:10:28;6.75;;;2.15;;
74894;SDS011;63447;49.446;8.666;2024-02-14T00:12:53;6.90;;;2.25;;
74894;SDS011;63447;49.446;8.666;2024-02-14T00:15:21;6.40;;;2.08;;
74894;SDS011;63447;49.446;8.666;2024-02-14T00:17:46;8.02;;;2.30;;
74894;SDS011;63447;49.446;8.666;2024-02-14T00:20:11;7.03;;;2.20;;
74894;SDS011;63447;49.446;8.666;2024-02-14T00:22:37;5.72;;;2.40;;
74894;SDS011;63447;49.446;8.666;2024-02-14T00:25:04;6.13;;;2.08;;
74894;SDS011;63447;49.446;8.666;2024-02-14T00:27:32;6.63;;;2.13;;
74894;SDS011;63447;49.446;8.666;2024-02-14T00:29:59;5.35;;;2.22;;
74894;SDS011;63447;49.446;8.666;2024-02-14T00:32:25;5.95;;;2.30;;
74894;SDS011;63447;49.446;8.666;2024-02-14T00:34:51;8.02;;;2.33;;
74894;SDS011;63447;49.446;8.666;2024-02-14T00:37:16;5.93;;;2.13;;
74894;SDS011;63447;49.446;8.666;2024-02-14T00:39:44;6.90;;;2.33;;
74894;SDS011;63447;49.446;8.666;2024-02-14T00:42:09;6.70;;;2.37;;
74894;SDS011;63447;49.446;8.666;2024-02-14T00:44:37;4.70;;;2.20;;
74894;SDS011;63447;49.446;8.666;2024-02-14T00:47:02;5.03;;;2.17;;
74894;SDS011;63447;49.446;8.666;2024-02-14T00:49:28;5.82;;;2.15;;
74894;SDS011;63447;49.446;8.666;2024-02-14T00:51:53;6.25;;;2.35;;
74894;SDS011;63447;49.446;8.666;2024-02-14T00:54:19;7.10;;;2.53;;
74894;SDS011;63447;49.446;8.666;2024-02-14T00:56:47;5.32;;;2.15;;
74894;SDS011;63447;49.446;8.666;2024-02-14T00:59:14;5.78;;;2.28;;
74894;SDS011;63447;49.446;8.666;2024-02-14T01:01:42;7.57;;;2.50;;
74894;SDS011;63447;49.446;8.666;2024-02-14T01:04:10;6.00;;;2.45;;
74894;SDS011;63447;49.446;8.666;2024-02-14T01:06:35;7.22;;;2.10;;
74894;SDS011;63447;49.446;8.666;2024-02-14T01:09:00;5.82;;;2.20;;
74894;SDS011;63447;49.446;8.666;2024-02-14T01:11:31;5.30;;;2.03;;
74894;SDS011;63447;49.446;8.666;2024-02-14T01:13:56;5.85;;;2.08;;
74894;SDS011;63447;49.446;8.666;2024-02-14T01:16:23;6.10;;;1.85;;
74894;SDS011;63447;49.446;8.666;2024-02-14T01:18:50;7.47;;;2.47;;
74894;SDS011;63447;49.446;8.666;2024-02-14T01:21:15;8.13;;;1.92;;
74894;SDS011;63447;49.446;8.666;2024-02-14T01:23:40;5.70;;;1.90;;
74894;SDS011;63447;49.446;8.666;2024-02-14T01:28:31;4.97;;;2.17;;
74894;SDS011;63447;49.446;8.666;2024-02-14T01:33:22;8.37;;;2.00;;
74894;SDS011;63447;49.446;8.666;2024-02-14T01:35:50;8.27;;;2.60;;
74894;SDS011;63447;49.446;8.666;2024-02-14T01:38:15;5.97;;;2.40;;
74894;SDS011;63447;49.446;8.666;2024-02-14T01:40:43;7.27;;;2.50;;
74894;SDS011;63447;49.446;8.666;2024-02-14T01:43:10;7.10;;;2.63;;
74894;SDS011;63447;49.446;8.666;2024-02-14T01:45:36;7.50;;;2.63;;
74894;SDS011;63447;49.446;8.666;2024-02-14T01:48:03;6.03;;;2.58;;
74894;SDS011;63447;49.446;8.666;2024-02-14T01:50:31;7.10;;;3.00;;
74894;SDS011;63447;49.446;8.666;2024-02-14T01:52:59;6.72;;;2.75;;
74894;SDS011;63447;49.446;8.666;2024-02-14T01:55:26;6.72;;;2.95;;
74894;SDS011;63447;49.446;8.666;2024-02-14T01:57:54;6.57;;;3.15;;
74894;SDS011;63447;49.446;8.666;2024-02-14T02:00:20;7.47;;;3.17;;
74894;SDS011;63447;49.446;8.666;2024-02-14T02:02:48;7.68;;;3.03;;
74894;SDS011;63447;49.446;8.666;2024-02-14T02:05:14;8.23;;;3.58;;
74894;SDS011;63447;49.446;8.666;2024-02-14T02:07:42;9.57;;;3.72;;
74894;SDS011;63447;49.446;8.666;2024-02-14T02:10:09;9.30;;;3.92;;
74894;SDS011;63447;49.446;8.666;2024-02-14T02:12:38;8.38;;;3.25;;
74894;SDS011;63447;49.446;8.666;2024-02-14T02:15:06;8.00;;;3.33;;
74894;SDS011;63447;49.446;8.666;2024-02-14T02:17:36;8.93;;;3.17;;
74894;SDS011;63447;49.446;8.666;2024-02-14T02:20:04;8.85;;;3.53;;
74894;SDS011;63447;49.446;8.666;2024-02-14T02:22:32;7.68;;;3.22;;
74894;SDS011;63447;49.446;8.666;2024-02-14T02:25:00;7.07;;;3.15;;
74894;SDS011;63447;49.446;8.666;2024-02-14T02:27:26;9.18;;;2.83;;
74894;SDS011;63447;49.446;8.666;2024-02-14T02:29:51;7.03;;;2.97;;
74894;SDS011;63447;49.446;8.666;2024-02-14T02:32:16;7.10;;;2.95;;
74894;SDS011;63447;49.446;8.666;2024-02-14T02:34:45;7.18;;;3.10;;
74894;SDS011;63447;49.446;8.666;2024-02-14T02:37:13;6.85;;;3.03;;
74894;SDS011;63447;49.446;8.666;2024-02-14T02:39:38;7.75;;;2.90;;
74894;SDS011;63447;49.446;8.666;2024-02-14T02:42:04;6.53;;;2.95;;
74894;SDS011;63447;49.446;8.666;2024-02-14T02:44:30;6.60;;;2.87;;
74894;SDS011;63447;49.446;8.666;2024-02-14T02:46:56;6.85;;;2.88;;
74894;SDS011;63447;49.446;8.666;2024-02-14T02:49:22;5.95;;;2.75;;
74894;SDS011;63447;49.446;8.666;2024-02-14T02:51:47;6.75;;;2.60;;
74894;SDS011;63447;49.446;8.666;2024-02-14T02:54:13;6.75;;;2.83;;
74894;SDS011;63447;49.446;8.666;2024-02-14T02:56:41;6.65;;;2.50;;
74894;SDS011;63447;49.446;8.666;2024-02-14T02:59:07;7.45;;;2.53;;
74894;SDS011;63447;49.446;8.666;2024-02-14T03:01:35;6.55;;;2.42;;
74894;SDS011;63447;49.446;8.666;2024-02-14T03:04:02;7.18;;;2.17;;
74894;SDS011;63447;49.446;8.666;2024-02-14T03:06:30;7.28;;;2.72;;
74894;SDS011;63447;49.446;8.666;2024-02-14T03:08:56;5.20;;;2.05;;
74894;SDS011;63447;49.446;8.666;2024-02-14T03:11:22;5.78;;;2.38;;
74894;SDS011;63447;49.446;8.666;2024-02-14T03:13:51;6.65;;;2.70;;
74894;SDS011;63447;49.446;8.666;2024-02-14T03:16:17;5.50;;;2.33;;
74894;SDS011;63447;49.446;8.666;2024-02-14T03:18:44;6.93;;;2.50;;
74894;SDS011;63447;49.446;8.666;2024-02-14T03:21:13;7.20;;;2.50;;
74894;SDS011;63447;49.446;8.666;2024-02-14T03:23:38;6.60;;;2.38;;
74894;SDS011;63447;49.446;8.666;2024-02-14T03:26:04;6.00;;;2.67;;
74894;SDS011;63447;49.446;8.666;2024-02-14T03:28:32;6.28;;;2.50;;
74894;SDS011;63447;49.446;8.666;2024-02-14T03:30:58;6.63;;;2.17;;
74894;SDS011;63447;49.446;8.666;2024-02-14T03:33:25;5.95;;;2.42;;
74894;SDS011;63447;49.446;8.666;2024-02-14T03:35:51;6.00;;;2.70;;
74894;SDS011;63447;49.446;8.666;2024-02-14T03:38:26;9.00;;;3.10;;
74894;SDS011;63447;49.446;8.666;2024-02-14T03:40:52;11.30;;;2.75;;
74894;SDS011;63447;49.446;8.666;2024-02-14T03:43:17;8.13;;;2.65;;
74894;SDS011;63447;49.446;8.666;2024-02-14T03:45:46;5.95;;;2.30;;
74894;SDS011;63447;49.446;8.666;2024-02-14T03:48:11;5.83;;;2.50;;
74894;SDS011;63447;49.446;8.666;2024-02-14T03:50:40;5.88;;;2.30;;
74894;SDS011;63447;49.446;8.666;2024-02-14T03:53:06;5.68;;;2.55;;
74894;SDS011;63447;49.446;8.666;2024-02-14T03:55:32;7.00;;;2.47;;
74894;SDS011;63447;49.446;8.666;2024-02-14T03:57:57;8.52;;;2.60;;
74894;SDS011;63447;49.446;8.666;2024-02-14T04:00:23;6.10;;;2.75;;
74894;SDS011;63447;49.446;8.666;2024-02-14T04:02:48;7.68;;;2.65;;
74894;SDS011;63447;49.446;8.666;2024-02-14T04:05:15;7.13;;;2.55;;
74894;SDS011;63447;49.446;8.666;2024-02-14T04:07:43;6.05;;;2.95;;
74894;SDS011;63447;49.446;8.666;2024-02-14T04:10:14;7.60;;;2.67;;
74894;SDS011;63447;49.446;8.666;2024-02-14T04:12:39;5.40;;;2.40;;
74894;SDS011;63447;49.446;8.666;2024-02-14T04:15:07;5.43;;;2.25;;
74894;SDS011;63447;49.446;8.666;2024-02-14T04:17:33;6.22;;;2.53;;
74894;SDS011;63447;49.446;8.666;2024-02-14T04:20:02;7.30;;;2.60;;
74894;SDS011;63447;49.446;8.666;2024-02-14T04:22:30;6.82;;;2.83;;
74894;SDS011;63447;49.446;8.666;2024-02-14T04:24:55;5.93;;;2.45;;
74894;SDS011;63447;49.446;8.666;2024-02-14T04:27:23;8.30;;;2.75;;
74894;SDS011;63447;49.446;8.666;2024-02-14T04:29:51;7.68;;;2.70;;
74894;SDS011;63447;49.446;8.666;2024-02-14T04:32:18;6.33;;;2.50;;
74894;SDS011;63447;49.446;8.666;2024-02-14T04:34:46;7.13;;;2.92;;
74894;SDS011;63447;49.446;8.666;2024-02-14T04:37:12;5.78;;;2.47;;
74894;SDS011;63447;49.446;8.666;2024-02-14T04:39:40;8.70;;;2.40;;
74894;SDS011;63447;49.446;8.666;2024-02-14T04:42:07;6.43;;;2.25;;
74894;SDS011;63447;49.446;8.666;2024-02-14T04:44:32;6.50;;;2.20;;
74894;SDS011;63447;49.446;8.666;2024-02-14T04:46:59;6.60;;;2.35;;
74894;SDS011;63447;49.446;8.666;2024-02-14T04:49:27;5.25;;;2.17;;
74894;SDS011;63447;49.446;8.666;2024-02-14T04:51:54;6.45;;;2.53;;
74894;SDS011;63447;49.446;8.666;2024-02-14T04:54:20;5.95;;;2.50;;
74894;SDS011;63447;49.446;8.666;2024-02-14T04:56:48;7.32;;;2.53;;
74894;SDS011;63447;49.446;8.666;2024-02-14T04:59:13;6.07;;;2.60;;
74894;SDS011;63447;49.446;8.666;2024-02-14T05:01:41;6.35;;;2.28;;
74894;SDS011;63447;49.446;8.666;2024-02-14T05:04:06;7.65;;;2.70;;
74894;SDS011;63447;49.446;8.666;2024-02-14T05:06:32;6.60;;;2.78;;
74894;SDS011;63447;49.446;8.666;2024-02-14T05:09:03;5.90;;;2.10;;
74894;SDS011;63447;49.446;8.666;2024-02-14T05:11:31;5.53;;;2.30;;
74894;SDS011;63447;49.446;8.666;2024-02-14T05:13:56;6.95;;;2.42;;
74894;SDS011;63447;49.446;8.666;2024-02-14T05:16:29;6.47;;;2.35;;
74894;SDS011;63447;49.446;8.666;2024-02-14T05:18:54;6.18;;;2.08;;
74894;SDS011;63447;49.446;8.666;2024-02-14T05:21:19;6.57;;;2.40;;
74894;SDS011;63447;49.446;8.666;2024-02-14T05:23:45;5.40;;;2.33;;
74894;SDS011;63447;49.446;8.666;2024-02-14T05:26:10;5.17;;;2.03;;
74894;SDS011;63447;49.446;8.666;2024-02-14T05:28:36;6.05;;;2.30;;
74894;SDS011;63447;49.446;8.666;2024-02-14T05:31:05;5.50;;;2.33;;
74894;SDS011;63447;49.446;8.666;2024-02-14T05:33:30;5.82;;;2.10;;
74894;SDS011;63447;49.446;8.666;2024-02-14T05:35:56;5.90;;;1.92;;
74894;SDS011;63447;49.446;8.666;2024-02-14T05:38:21;8.15;;;2.10;;
74894;SDS011;63447;49.446;8.666;2024-02-14T05:40:49;5.45;;;2.35;;
74894;SDS011;63447;49.446;8.666;2024-02-14T05:43:14;6.73;;;2.20;;
74894;SDS011;63447;49.446;8.666;2024-02-14T05:45:40;7.38;;;2.22;;
74894;SDS011;63447;49.446;8.666;2024-02-14T05:48:08;6.30;;;2.30;;
74894;SDS011;63447;49.446;8.666;2024-02-14T05:50:34;7.38;;;2.40;;
74894;SDS011;63447;49.446;8.666;2024-02-14T05:53:02;7.25;;;2.72;;
74894;SDS011;63447;49.446;8.666;2024-02-14T05:55:28;6.90;;;2.22;;
74894;SDS011;63447;49.446;8.666;2024-02-14T05:57:56;5.72;;;2.10;;
74894;SDS011;63447;49.446;8.666;2024-02-14T06:00:22;6.95;;;2.00;;
74894;SDS011;63447;49.446;8.666;2024-02-14T06:02:47;5.77;;;2.13;;
74894;SDS011;63447;49.446;8.666;2024-02-14T06:05:15;7.80;;;2.30;;
74894;SDS011;63447;49.446;8.666;2024-02-14T06:07:43;6.22;;;2.38;;
74894;SDS011;63447;49.446;8.666;2024-02-14T06:10:12;5.80;;;2.00;;
74894;SDS011;63447;49.446;8.666;2024-02-14T06:12:37;7.18;;;2.00;;
74894;SDS011;63447;49.446;8.666;2024-02-14T06:15:05;6.03;;;1.92;;
74894;SDS011;63447;49.446;8.666;2024-02-14T06:17:34;8.98;;;2.40;;
74894;SDS011;63447;49.446;8.666;2024-02-14T06:20:00;6.53;;;2.47;;
74894;SDS011;63447;49.446;8.666;2024-02-14T06:22:32;5.43;;;2.30;;
74894;SDS011;63447;49.446;8.666;2024-02-14T06:24:58;5.40;;;2.30;;
74894;SDS011;63447;49.446;8.666;2024-02-14T06:27:24;6.95;;;2.03;;
74894;SDS011;63447;49.446;8.666;2024-02-14T06:29:50;5.32;;;1.98;;
74894;SDS011;63447;49.446;8.666;2024-02-14T06:32:18;6.30;;;2.20;;
74894;SDS011;63447;49.446;8.666;2024-02-14T06:34:46;5.63;;;2.00;;
74894;SDS011;63447;49.446;8.666;2024-02-14T06:37:11;6.37;;;2.40;;
74894;SDS011;63447;49.446;8.666;2024-02-14T06:39:36;6.13;;;2.10;;
74894;SDS011;63447;49.446;8.666;2024-02-14T06:42:02;5.17;;;1.83;;
74894;SDS011;63447;49.446;8.666;2024-02-14T06:44:27;5.72;;;1.88;;
74894;SDS011;63447;49.446;8.666;2024-02-14T06:46:52;7.57;;;2.43;;
74894;SDS011;63447;49.446;8.666;2024-02-14T06:49:20;5.85;;;2.28;;
74894;SDS011;63447;49.446;8.666;2024-02-14T06:51:45;8.82;;;2.00;;
74894;SDS011;63447;49.446;8.666;2024-02-14T06:54:11;6.70;;;2.60;;
74894;SDS011;63447;49.446;8.666;2024-02-14T06:56:37;9.10;;;2.90;;
74894;SDS011;63447;49.446;8.666;2024-02-14T06:59:03;8.60;;;3.83;;
74894;SDS011;63447;49.446;8.666;2024-02-14T07:01:29;6.53;;;2.15;;
74894;SDS011;63447;49.446;8.666;2024-02-14T07:03:54;5.90;;;2.05;;
74894;SDS011;63447;49.446;8.666;2024-02-14T07:06:20;8.52;;;2.33;;
74894;SDS011;63447;49.446;8.666;2024-02-14T07:08:48;7.10;;;2.10;;
74894;SDS011;63447;49.446;8.666;2024-02-14T07:11:14;7.88;;;2.35;;
74894;SDS011;63447;49.446;8.666;2024-02-14T07:13:43;5.18;;;2.10;;
74894;SDS011;63447;49.446;8.666;2024-02-14T07:16:10;5.32;;;1.80;;
74894;SDS011;63447;49.446;8.666;2024-02-14T07:18:36;6.57;;;2.20;;
74894;SDS011;63447;49.446;8.666;2024-02-14T07:21:01;6.63;;;2.28;;
74894;SDS011;63447;49.446;8.666;2024-02-14T07:23:27;6.72;;;2.28;;
74894;SDS011;63447;49.446;8.666;2024-02-14T07:25:54;5.93;;;2.20;;
74894;SDS011;63447;49.446;8.666;2024-02-14T07:28:20;6.78;;;2.20;;
74894;SDS011;63447;49.446;8.666;2024-02-14T07:30:45;5.90;;;2.10;;
74894;SDS011;63447;49.446;8.666;2024-02-14T07:33:10;6.30;;;2.50;;
74894;SDS011;63447;49.446;8.666;2024-02-14T07:35:36;5.80;;;2.53;;
74894;SDS011;63447;49.446;8.666;2024-02-14T07:38:02;7.97;;;2.47;;
74894;SDS011;63447;49.446;8.666;2024-02-14T07:40:30;6.25;;;2.40;;
74894;SDS011;63447;49.446;8.666;2024-02-14T07:42:58;7.43;;;2.90;;
74894;SDS011;63447;49.446;8.666;2024-02-14T07:45:24;7.00;;;2.30;;
74894;SDS011;63447;49.446;8.666;2024-02-14T07:47:50;9.23;;;2.75;;
74894;SDS011;63447;49.446;8.666;2024-02-14T07:50:15;12.82;;;2.97;;
74894;SDS011;63447;49.446;8.666;2024-02-14T07:52:44;7.13;;;2.30;;
74894;SDS011;63447;49.446;8.666;2024-02-14T07:55:10;6.18;;;2.70;;
74894;SDS011;63447;49.446;8.666;2024-02-14T07:57:42;8.65;;;2.30;;
74894;SDS011;63447;49.446;8.666;2024-02-14T08:00:10;8.20;;;3.22;;
74894;SDS011;63447;49.446;8.666;2024-02-14T08:02:36;6.90;;;2.42;;
74894;SDS011;63447;49.446;8.666;2024-02-14T08:05:04;8.38;;;2.80;;
74894;SDS011;63447;49.446;8.666;2024-02-14T08:07:30;8.18;;;2.35;;
74894;SDS011;63447;49.446;8.666;2024-02-14T08:09:56;8.00;;;2.75;;
74894;SDS011;63447;49.446;8.666;2024-02-14T08:12:21;7.65;;;2.80;;
74894;SDS011;63447;49.446;8.666;2024-02-14T08:14:48;5.45;;;2.10;;
74894;SDS011;63447;49.446;8.666;2024-02-14T08:17:13;8.10;;;2.50;;
74894;SDS011;63447;49.446;8.666;2024-02-14T08:19:43;9.60;;;2.58;;
74894;SDS011;63447;49.446;8.666;2024-02-14T08:22:09;6.90;;;2.30;;
74894;SDS011;63447;49.446;8.666;2024-02-14T08:24:34;6.30;;;2.07;;
74894;SDS011;63447;49.446;8.666;2024-02-14T08:26:59;6.28;;;2.28;;
74894;SDS011;63447;49.446;8.666;2024-02-14T08:29:25;6.28;;;2.30;;
74894;SDS011;63447;49.446;8.666;2024-02-14T08:31:50;5.40;;;2.13;;
74894;SDS011;63447;49.446;8.666;2024-02-14T08:34:16;5.85;;;2.30;;
74894;SDS011;63447;49.446;8.666;2024-02-14T08:36:42;5.28;;;2.30;;
74894;SDS011;63447;49.446;8.666;2024-02-14T08:39:08;7.57;;;2.50;;
74894;SDS011;63447;49.446;8.666;2024-02-14T08:41:37;6.72;;;2.35;;
74894;SDS011;63447;49.446;8.666;2024-02-14T08:44:09;7.07;;;2.50;;
74894;SDS011;63447;49.446;8.666;2024-02-14T08:46:35;6.57;;;2.28;;
74894;SDS011;63447;49.446;8.666;2024-02-14T08:49:00;9.90;;;3.67;;
74894;SDS011;63447;49.446;8.666;2024-02-14T08:51:33;7.25;;;2.42;;
74894;SDS011;63447;49.446;8.666;2024-02-14T08:53:59;6.20;;;2.20;;
74894;SDS011;63447;49.446;8.666;2024-02-14T08:56:25;6.25;;;2.50;;
74894;SDS011;63447;49.446;8.666;2024-02-14T08:58:50;8.98;;;2.50;;
74894;SDS011;63447;49.446;8.666;2024-02-14T09:01:19;7.22;;;2.35;;
74894;SDS011;63447;49.446;8.666;2024-02-14T09:03:46;6.43;;;2.53;;
74894;SDS011;63447;49.446;8.666;2024-02-14T09:06:13;7.43;;;2.50;;
74894;SDS011;63447;49.446;8.666;2024-02-14T09:08:39;6.32;;;2.90;;
74894;SDS011;63447;49.446;8.666;2024-02-14T09:11:05;6.00;;;2.45;;
74894;SDS011;63447;49.446;8.666;2024-02-14T09:13:31;6.20;;;2.83;;
74894;SDS011;63447;49.446;8.666;2024-02-14T09:15:56;6.38;;;2.40;;
74894;SDS011;63447;49.446;8.666;2024-02-14T09:18:21;5.40;;;2.00;;
74894;SDS011;63447;49.446;8.666;2024-02-14T09:20:49;6.43;;;2.35;;
74894;SDS011;63447;49.446;8.666;2024-02-14T09:23:18;7.70;;;2.65;;
74894;SDS011;63447;49.446;8.666;2024-02-14T09:25:47;6.88;;;2.50;;
74894;SDS011;63447;49.446;8.666;2024-02-14T09:28:15;6.32;;;2.20;;
74894;SDS011;63447;49.446;8.666;2024-02-14T09:30:43;6.57;;;2.38;;
74894;SDS011;63447;49.446;8.666;2024-02-14T09:33:08;6.28;;;2.33;;
74894;SDS011;63447;49.446;8.666;2024-02-14T09:35:34;6.23;;;2.17;;
74894;SDS011;63447;49.446;8.666;2024-02-14T09:38:03;6.72;;;2.75;;
74894;SDS011;63447;49.446;8.666;2024-02-14T09:40:29;10.98;;;3.30;;
74894;SDS011;63447;49.446;8.666;2024-02-14T09:42:55;6.63;;;2.42;;
74894;SDS011;63447;49.446;8.666;2024-02-14T09:45:28;6.75;;;2.35;;
74894;SDS011;63447;49.446;8.666;2024-02-14T09:47:55;5.15;;;2.08;;
74894;SDS011;63447;49.446;8.666;2024-02-14T09:50:24;6.25;;;2.05;;
74894;SDS011;63447;49.446;8.666;2024-02-14T09:52:53;7.60;;;2.30;;
74894;SDS011;63447;49.446;8.666;2024-02-14T09:55:22;6.28;;;2.17;;
74894;SDS011;63447;49.446;8.666;2024-02-14T09:57:49;6.80;;;2.40;;
74894;SDS011;63447;49.446;8.666;2024-02-14T10:00:15;8.48;;;2.40;;
74894;SDS011;63447;49.446;8.666;2024-02-14T10:02:44;6.60;;;2.40;;
74894;SDS011;63447;49.446;8.666;2024-02-14T10:05:09;6.68;;;2.28;;
74894;SDS011;63447;49.446;8.666;2024-02-14T10:07:43;6.13;;;2.30;;
74894;SDS011;63447;49.446;8.666;2024-02-14T10:10:09;6.07;;;2.13;;
74894;SDS011;63447;49.446;8.666;2024-02-14T10:12:38;6.32;;;2.38;;
74894;SDS011;63447;49.446;8.666;2024-02-14T10:15:06;5.70;;;2.30;;
74894;SDS011;63447;49.446;8.666;2024-02-14T10:17:33;9.13;;;2.55;;
74894;SDS011;63447;49.446;8.666;2024-02-14T10:19:59;5.88;;;2.47;;
74894;SDS011;63447;49.446;8.666;2024-02-14T10:22:34;6.68;;;2.65;;
74894;SDS011;63447;49.446;8.666;2024-02-14T10:25:01;5.68;;;2.30;;
74894;SDS011;63447;49.446;8.666;2024-02-14T10:27:29;8.60;;;3.13;;
74894;SDS011;63447;49.446;8.666;2024-02-14T10:29:57;8.20;;;3.50;;
74894;SDS011;63447;49.446;8.666;2024-02-14T10:32:22;8.73;;;2.60;;
74894;SDS011;63447;49.446;8.666;2024-02-14T10:34:49;6.97;;;2.38;;
74894;SDS011;63447;49.446;8.666;2024-02-14T10:37:15;7.63;;;2.30;;
74894;SDS011;63447;49.446;8.666;2024-02-14T10:39:43;7.13;;;2.35;;
74894;SDS011;63447;49.446;8.666;2024-02-14T10:42:13;6.43;;;2.40;;
74894;SDS011;63447;49.446;8.666;2024-02-14T10:44:44;5.20;;;2.05;;
74894;SDS011;63447;49.446;8.666;2024-02-14T10:47:10;5.30;;;2.03;;
74894;SDS011;63447;49.446;8.666;2024-02-14T10:49:38;6.65;;;2.33;;
74894;SDS011;63447;49.446;8.666;2024-02-14T10:52:07;5.82;;;2.20;;
74894;SDS011;63447;49.446;8.666;2024-02-14T10:54:35;6.38;;;2.20;;
74894;SDS011;63447;49.446;8.666;2024-02-14T10:57:03;7.03;;;2.10;;
74894;SDS011;63447;49.446;8.666;2024-02-14T10:59:37;6.22;;;2.08;;
74894;SDS011;63447;49.446;8.666;2024-02-14T11:02:06;6.47;;;2.15;;
74894;SDS011;63447;49.446;8.666;2024-02-14T11:04:32;8.90;;;2.25;;
74894;SDS011;63447;49.446;8.666;2024-02-14T11:06:58;9.02;;;2.35;;
74894;SDS011;63447;49.446;8.666;2024-02-14T11:09:36;8.48;;;2.42;;
74894;SDS011;63447;49.446;8.666;2024-02-14T11:12:02;6.63;;;2.40;;
74894;SDS011;63447;49.446;8.666;2024-02-14T11:14:31;8.70;;;2.88;;
74894;SDS011;63447;49.446;8.666;2024-02-14T11:17:02;7.72;;;2.40;;
74894;SDS011;63447;49.446;8.666;2024-02-14T11:19:33;6.68;;;2.22;;
74894;SDS011;63447;49.446;8.666;2024-02-14T11:22:09;5.65;;;2.38;;
74894;SDS011;63447;49.446;8.666;2024-02-14T11:24:37;7.68;;;2.47;;
74894;SDS011;63447;49.446;8.666;2024-02-14T11:27:08;7.13;;;2.30;;
74894;SDS011;63447;49.446;8.666;2024-02-14T11:29:35;7.70;;;2.58;;
74894;SDS011;63447;49.446;8.666;2024-02-14T11:32:01;7.10;;;2.25;;
74894;SDS011;63447;49.446;8.666;2024-02-14T11:34:31;16.98;;;3.33;;
74894;SDS011;63447;49.446;8.666;2024-02-14T11:36:59;5.97;;;2.63;;
74894;SDS011;63447;49.446;8.666;2024-02-14T11:39:27;6.30;;;2.47;;
74894;SDS011;63447;49.446;8.666;2024-02-14T11:41:55;8.00;;;2.47;;
74894;SDS011;63447;49.446;8.666;2024-02-14T11:44:23;6.63;;;2.30;;
74894;SDS011;63447;49.446;8.666;2024-02-14T11:46:48;6.47;;;2.10;;
74894;SDS011;63447;49.446;8.666;2024-02-14T11:49:14;6.63;;;2.40;;
74894;SDS011;63447;49.446;8.666;2024-02-14T11:51:39;7.78;;;2.80;;
74894;SDS011;63447;49.446;8.666;2024-02-14T11:54:06;7.20;;;2.45;;
74894;SDS011;63447;49.446;8.666;2024-02-14T11:56:38;7.00;;;2.42;;
74894;SDS011;63447;49.446;8.666;2024-02-14T12:01:35;4.97;;;2.13;;
74894;SDS011;63447;49.446;8.666;2024-02-14T12:04:01;5.72;;;2.53;;
74894;SDS011;63447;49.446;8.666;2024-02-14T12:06:29;7.70;;;2.25;;
74894;SDS011;63447;49.446;8.666;2024-02-14T12:08:57;5.70;;;2.13;;
74894;SDS011;63447;49.446;8.666;2024-02-14T12:11:33;6.53;;;2.20;;
74894;SDS011;63447;49.446;8.666;2024-02-14T12:14:02;5.93;;;2.65;;
74894;SDS011;63447;49.446;8.666;2024-02-14T12:16:28;6.57;;;2.90;;
74894;SDS011;63447;49.446;8.666;2024-02-14T12:19:07;5.35;;;2.28;;
74894;SDS011;63447;49.446;8.666;2024-02-14T12:21:39;6.03;;;2.28;;
74894;SDS011;63447;49.446;8.666;2024-02-14T12:24:10;5.38;;;2.70;;
74894;SDS011;63447;49.446;8.666;2024-02-14T12:26:39;8.23;;;2.38;;
74894;SDS011;63447;49.446;8.666;2024-02-14T12:29:08;6.57;;;2.40;;
74894;SDS011;63447;49.446;8.666;2024-02-14T12:31:37;5.95;;;1.92;;
74894;SDS011;63447;49.446;8.666;2024-02-14T12:34:07;5.07;;;1.92;;
74894;SDS011;63447;49.446;8.666;2024-02-14T12:36:38;6.80;;;2.15;;
74894;SDS011;63447;49.446;8.666;2024-02-14T12:39:04;12.35;;;3.10;;
74894;SDS011;63447;49.446;8.666;2024-02-14T12:41:34;5.53;;;2.00;;
74894;SDS011;63447;49.446;8.666;2024-02-14T12:44:02;4.78;;;1.80;;
74894;SDS011;63447;49.446;8.666;2024-02-14T12:46:29;6.50;;;2.13;;
74894;SDS011;63447;49.446;8.666;2024-02-14T12:48:57;5.43;;;1.83;;
74894;SDS011;63447;49.446;8.666;2024-02-14T12:51:25;5.50;;;1.90;;
74894;SDS011;63447;49.446;8.666;2024-02-14T12:53:53;6.53;;;2.30;;
74894;SDS011;63447;49.446;8.666;2024-02-14T12:56:21;11.93;;;3.85;;
74894;SDS011;63447;49.446;8.666;2024-02-14T12:58:49;6.25;;;2.00;;
74894;SDS011;63447;49.446;8.666;2024-02-14T13:01:17;6.13;;;1.70;;
74894;SDS011;63447;49.446;8.666;2024-02-14T13:03:43;5.15;;;1.80;;
74894;SDS011;63447;49.446;8.666;2024-02-14T13:06:10;5.07;;;1.90;;
74894;SDS011;63447;49.446;8.666;2024-02-14T13:08:36;5.93;;;2.03;;
74894;SDS011;63447;49.446;8.666;2024-02-14T13:11:06;4.40;;;1.77;;
74894;SDS011;63447;49.446;8.666;2024-02-14T13:13:34;6.43;;;2.20;;
74894;SDS011;63447;49.446;8.666;2024-02-14T13:16:09;4.05;;;1.73;;
74894;SDS011;63447;49.446;8.666;2024-02-14T13:18:39;6.07;;;2.20;;
74894;SDS011;63447;49.446;8.666;2024-02-14T13:21:05;7.68;;;2.50;;
74894;SDS011;63447;49.446;8.666;2024-02-14T13:23:33;4.93;;;2.00;;
74894;SDS011;63447;49.446;8.666;2024-02-14T13:25:58;4.90;;;1.65;;
74894;SDS011;63447;49.446;8.666;2024-02-14T13:28:28;5.25;;;1.80;;
74894;SDS011;63447;49.446;8.666;2024-02-14T13:30:54;5.18;;;1.90;;
74894;SDS011;63447;49.446;8.666;2024-02-14T13:33:19;5.22;;;1.63;;
74894;SDS011;63447;49.446;8.666;2024-02-14T13:35:47;5.07;;;1.40;;
74894;SDS011;63447;49.446;8.666;2024-02-14T13:38:15;6.00;;;1.58;;
74894;SDS011;63447;49.446;8.666;2024-02-14T13:40:44;5.22;;;1.92;;
74894;SDS011;63447;49.446;8.666;2024-02-14T13:43:11;4.13;;;1.70;;
74894;SDS011;63447;49.446;8.666;2024-02-14T13:45:43;4.25;;;1.40;;
74894;SDS011;63447;49.446;8.666;2024-02-14T13:48:12;4.72;;;1.40;;
74894;SDS011;63447;49.446;8.666;2024-02-14T13:50:39;4.90;;;1.25;;
74894;SDS011;63447;49.446;8.666;2024-02-14T13:53:07;3.75;;;1.10;;
74894;SDS011;63447;49.446;8.666;2024-02-14T13:55:35;4.15;;;1.35;;
74894;SDS011;63447;49.446;8.666;2024-02-14T13:58:07;3.50;;;1.10;;
74894;SDS011;63447;49.446;8.666;2024-02-14T14:00:40;3.13;;;1.40;;
74894;SDS011;63447;49.446;8.666;2024-02-14T14:03:10;4.55;;;1.20;;
74894;SDS011;63447;49.446;8.666;2024-02-14T14:05:38;4.63;;;1.00;;
74894;SDS011;63447;49.446;8.666;2024-02-14T14:08:05;2.57;;;1.03;;
74894;SDS011;63447;49.446;8.666;2024-02-14T14:10:31;3.05;;;1.08;;
74894;SDS011;63447;49.446;8.666;2024-02-14T14:12:56;5.10;;;0.90;;
74894;SDS011;63447;49.446;8.666;2024-02-14T14:15:21;2.83;;;0.88;;
74894;SDS011;63447;49.446;8.666;2024-02-14T14:17:53;4.00;;;1.17;;
74894;SDS011;63447;49.446;8.666;2024-02-14T14:20:24;4.07;;;1.23;;
74894;SDS011;63447;49.446;8.666;2024-02-14T14:22:50;4.03;;;1.15;;
74894;SDS011;63447;49.446;8.666;2024-02-14T14:25:17;3.40;;;1.02;;
74894;SDS011;63447;49.446;8.666;2024-02-14T14:27:43;3.88;;;0.90;;
74894;SDS011;63447;49.446;8.666;2024-02-14T14:30:08;3.50;;;1.17;;
74894;SDS011;63447;49.446;8.666;2024-02-14T14:32:34;5.18;;;1.23;;
74894;SDS011;63447;49.446;8.666;2024-02-14T14:34:59;4.10;;;0.90;;
74894;SDS011;63447;49.446;8.666;2024-02-14T14:37:25;3.37;;;1.20;;
74894;SDS011;63447;49.446;8.666;2024-02-14T14:39:50;5.18;;;0.93;;
74894;SDS011;63447;49.446;8.666;2024-02-14T14:42:23;5.38;;;1.00;;
74894;SDS011;63447;49.446;8.666;2024-02-14T14:44:49;2.97;;;0.90;;
74894;SDS011;63447;49.446;8.666;2024-02-14T14:47:17;4.63;;;1.88;;
74894;SDS011;63447;49.446;8.666;2024-02-14T14:49:44;4.68;;;2.00;;
74894;SDS011;63447;49.446;8.666;2024-02-14T14:52:10;9.03;;;3.40;;
74894;SDS011;63447;49.446;8.666;2024-02-14T14:54:35;4.20;;;0.95;;